This is the latest recevied weather packets stored in our database for station/object CT4TX-11. If no packets are shown the sender has not sent any weather packets the latest 10 day(s).
| Time | Temp. | Humidity | Pressure | Rain* | Wind** | Luminosity | Snow |
|---|---|---|---|---|---|---|---|
| 1777427369 | 28.89° C | 41% | 994.2 hPa | - | - | - | - |
| 1777426469 | 28.89° C | 41% | 994.6 hPa | - | - | - | - |
| 1777425569 | 28.89° C | 41% | 994.8 hPa | - | - | - | - |
| 1777424668 | 28.89° C | 41% | 995 hPa | - | - | - | - |
| 1777423767 | 28.89° C | 41% | 995 hPa | - | - | - | - |
| 1777422867 | 28.89° C | 41% | 995.5 hPa | - | - | - | - |
| 1777421967 | 28.89° C | 41% | 995.6 hPa | - | - | - | - |
| 1777421074 | 28.89° C | 41% | 995.2 hPa | - | - | - | - |
| 1777420174 | 28.89° C | 41% | 995.3 hPa | - | - | - | - |
| 1777419273 | 28.89° C | 41% | 995.4 hPa | - | - | - | - |
| 1777418373 | 28.89° C | 40% | 995.3 hPa | - | - | - | - |
| 1777417473 | 28.89° C | 40% | 995.4 hPa | - | - | - | - |
| 1777416573 | 28.89° C | 41% | 995.5 hPa | - | - | - | - |
| 1777415672 | 28.89° C | 40% | 995.5 hPa | - | - | - | - |
| 1777414772 | 30.56° C | 38% | 995.8 hPa | - | - | - | - |
| 1777413872 | 29.44° C | 40% | 995.7 hPa | - | - | - | - |
| 1777412972 | 28.33° C | 42% | 995.8 hPa | - | - | - | - |
| 1777412071 | 28.33° C | 42% | 995.9 hPa | - | - | - | - |
| 1777411171 | 26.67° C | 45% | 996 hPa | - | - | - | - |
| 1777410271 | 27.22° C | 45% | 996 hPa | - | - | - | - |
| 1777409371 | 26.11° C | 47% | 996 hPa | - | - | - | - |
| 1777408470 | 27.78° C | 43% | 996 hPa | - | - | - | - |
| 1777407570 | 28.33° C | 42% | 995.9 hPa | - | - | - | - |
| 1777406670 | 28.89° C | 40% | 995.8 hPa | - | - | - | - |
| 1777405770 | 29.44° C | 41% | 995.7 hPa | - | - | - | - |
* Rain since midnight (hover to see other rain measurements)
** Current wind speed in m/s (hover to see current wind gust speed)